createdAt,value
2018-11-23T00:00:36.994Z,99576.73
2018-11-23T00:03:05.887Z,99573.98
2018-11-23T00:05:37.747Z,99584.21
2018-11-23T00:08:05.914Z,99580.67
2018-11-23T00:10:34.802Z,99576.54
2018-11-23T00:13:03.218Z,99576.15
2018-11-23T00:15:31.608Z,99535.80
2018-11-23T00:18:00.631Z,99579.52
2018-11-23T00:20:29.638Z,99575.55
2018-11-23T00:22:57.713Z,99577.13
2018-11-23T00:25:27.457Z,99545.37
2018-11-23T00:27:56.433Z,99572.28
2018-11-23T00:30:26.668Z,99571.52
2018-11-23T00:32:55.838Z,99576.48
2018-11-23T00:35:26.369Z,99582.21
2018-11-23T00:37:56.102Z,99582.58
2018-11-23T00:40:26.260Z,99580.83
2018-11-23T00:42:54.626Z,99592.64
2018-11-23T00:45:23.272Z,99599.52
2018-11-23T00:47:52.402Z,99591.66
2018-11-23T00:50:21.566Z,99589.30
2018-11-23T00:52:50.462Z,99590.84
2018-11-23T00:55:19.991Z,99588.47
2018-11-23T00:57:48.232Z,99595.91
2018-11-23T01:00:19.035Z,99587.66
2018-11-23T01:02:47.555Z,99591.42
2018-11-23T01:05:17.216Z,99587.66
2018-11-23T01:07:46.164Z,99542.23
2018-11-23T01:10:16.426Z,99439.12
2018-11-23T01:12:45.607Z,99585.33
2018-11-23T01:15:14.121Z,99578.67
2018-11-23T01:17:42.593Z,99577.36
2018-11-23T01:20:13.913Z,99579.55
2018-11-23T01:22:42.595Z,99581.33
2018-11-23T01:25:13.232Z,99581.52
2018-11-23T01:27:42.522Z,99555.42
2018-11-23T01:30:18.260Z,99580.17
2018-11-23T01:32:46.816Z,99576.44
2018-11-23T01:35:15.316Z,99579.26
2018-11-23T01:37:43.807Z,99584.14
2018-11-23T01:40:16.578Z,99588.08
2018-11-23T01:42:49.657Z,99586.70
2018-11-23T01:45:18.017Z,99582.96
2018-11-23T01:47:46.632Z,99581.42
2018-11-23T01:50:17.283Z,99582.17
2018-11-23T01:52:46.958Z,99554.97
2018-11-23T01:55:16.702Z,99573.59
2018-11-23T01:57:45.135Z,99496.52
2018-11-23T02:00:15.320Z,99574.47
2018-11-23T02:02:44.385Z,99557.78
2018-11-23T02:05:12.838Z,99575.65
2018-11-23T02:07:41.885Z,99572.73
2018-11-23T02:10:12.790Z,99576.89
2018-11-23T02:12:42.690Z,99575.13
2018-11-23T02:15:12.538Z,99578.69
2018-11-23T02:17:41.045Z,99571.64
2018-11-23T02:20:10.784Z,99567.78
2018-11-23T02:22:38.992Z,99553.28
2018-11-23T02:25:07.783Z,99579.21
2018-11-23T02:27:36.242Z,99579.41
2018-11-23T02:30:10.644Z,99573.17
2018-11-23T02:32:40.608Z,99534.58
2018-11-23T02:35:08.775Z,99577.53
2018-11-23T02:37:37.317Z,99575.20
2018-11-23T02:40:06.786Z,99573.83
2018-11-23T02:42:35.115Z,99573.47
2018-11-23T02:45:03.725Z,99564.28
2018-11-23T02:47:32.520Z,99569.26
2018-11-23T02:50:01.016Z,99559.19
2018-11-23T02:52:29.314Z,99557.93
2018-11-23T02:54:57.872Z,99574.52
2018-11-23T02:57:26.190Z,99550.53
2018-11-23T02:59:54.659Z,99417.39
2018-11-23T03:02:23.920Z,99565.31
2018-11-23T03:04:52.504Z,99585.81
2018-11-23T03:07:21.010Z,99563.70
2018-11-23T03:09:49.805Z,99562.13
2018-11-23T03:12:18.172Z,99536.37
2018-11-23T03:14:47.646Z,99571.61
2018-11-23T03:17:15.915Z,99570.27
2018-11-23T03:19:44.776Z,99570.06
2018-11-23T03:22:13.752Z,99562.09
2018-11-23T03:24:42.313Z,99564.23
2018-11-23T03:27:10.693Z,99566.22
2018-11-23T03:29:39.921Z,99564.05
2018-11-23T03:32:08.643Z,99566.83
2018-11-23T03:34:37.069Z,99558.27
2018-11-23T03:37:05.667Z,99518.27
2018-11-23T03:39:34.317Z,99544.41
2018-11-23T03:42:02.833Z,99561.59
2018-11-23T03:44:31.734Z,99560.21
2018-11-23T03:47:00.235Z,99554.32
2018-11-23T03:49:28.647Z,99581.63
2018-11-23T03:51:57.258Z,99494.30
2018-11-23T03:54:27.629Z,99552.44
2018-11-23T03:56:56.538Z,99550.50
2018-11-23T03:59:25.222Z,99543.68
2018-11-23T04:01:53.633Z,99547.58
2018-11-23T04:04:22.578Z,99553.30
2018-11-23T04:06:51.580Z,99546.23
2018-11-23T04:09:20.242Z,99394.91
2018-11-23T04:11:48.665Z,99556.51
2018-11-23T04:14:17.123Z,99553.95
2018-11-23T04:16:45.845Z,99544.14
2018-11-23T04:19:14.390Z,99544.53
2018-11-23T04:21:42.802Z,99543.53
2018-11-23T04:24:10.920Z,99533.57
2018-11-23T04:26:39.472Z,99529.27
2018-11-23T04:29:07.794Z,99537.56
2018-11-23T04:31:37.556Z,99543.66
2018-11-23T04:34:05.960Z,99536.80
2018-11-23T04:36:34.187Z,99531.36
2018-11-23T04:39:04.341Z,99509.17
2018-11-23T04:41:32.903Z,99537.25
2018-11-23T04:44:01.354Z,99539.06
2018-11-23T04:46:29.893Z,99534.77
2018-11-23T04:48:58.404Z,99541.67
2018-11-23T04:51:26.568Z,99506.13
2018-11-23T04:53:55.056Z,99544.70
2018-11-23T04:56:23.548Z,99541.25
2018-11-23T04:58:52.319Z,99526.66
2018-11-23T05:01:21.014Z,99547.95
2018-11-23T05:03:49.722Z,99520.02
2018-11-23T05:06:18.167Z,99546.28
2018-11-23T05:08:47.353Z,99545.73
2018-11-23T05:11:33.001Z,99539.26
2018-11-23T05:14:01.636Z,99525.31
2018-11-23T05:16:30.971Z,99526.58
2018-11-23T05:19:00.684Z,99544.27
2018-11-23T05:21:29.533Z,99502.84
2018-11-23T05:24:01.110Z,99514.61
2018-11-23T05:26:30.294Z,99535.73
2018-11-23T05:28:59.403Z,99540.62
2018-11-23T05:31:27.778Z,99539.48
2018-11-23T05:33:56.452Z,99351.54
2018-11-23T05:36:25.795Z,99374.03
2018-11-23T05:38:54.069Z,99534.44
2018-11-23T05:41:22.735Z,99492.78
2018-11-23T05:43:51.012Z,99537.16
2018-11-23T05:46:19.506Z,99531.27
2018-11-23T05:48:48.244Z,99537.55
2018-11-23T05:51:16.743Z,99534.58
2018-11-23T05:53:45.615Z,99531.45
2018-11-23T05:56:14.364Z,99531.05
2018-11-23T05:58:42.926Z,99534.00
2018-11-23T06:01:12.099Z,99484.31
2018-11-23T06:03:40.705Z,99530.67
2018-11-23T06:06:08.974Z,99536.52
2018-11-23T06:08:37.467Z,99537.89
2018-11-23T06:11:07.209Z,99542.80
2018-11-23T06:13:35.722Z,99536.11
2018-11-23T06:16:08.712Z,99514.89
2018-11-23T06:18:36.959Z,99537.48
2018-11-23T06:21:05.356Z,99541.58
2018-11-23T06:23:34.380Z,99541.95
2018-11-23T06:26:10.790Z,99547.05
2018-11-23T06:28:39.329Z,99482.84
2018-11-23T06:31:07.550Z,99477.60
2018-11-23T06:33:38.651Z,99543.61
2018-11-23T06:36:07.307Z,99527.53
2018-11-23T06:38:35.835Z,99505.00
2018-11-23T06:41:10.136Z,99485.77
2018-11-23T06:43:32.920Z,99541.41
2018-11-23T06:46:02.224Z,99540.47
2018-11-23T06:48:30.439Z,99537.19
2018-11-23T06:50:58.863Z,99534.11
2018-11-23T06:53:27.279Z,99523.52
2018-11-23T06:55:55.979Z,99500.58
2018-11-23T06:58:24.638Z,99524.77
2018-11-23T07:00:53.540Z,99543.94
2018-11-23T07:03:21.709Z,99529.59
2018-11-23T07:05:50.757Z,99549.70
2018-11-23T07:08:19.583Z,99549.75
2018-11-23T07:10:48.037Z,99539.63
2018-11-23T07:13:16.596Z,99487.51
2018-11-23T07:15:44.799Z,99557.40
2018-11-23T07:18:13.183Z,99545.58
2018-11-23T07:20:42.032Z,99528.30
2018-11-23T07:23:10.273Z,99528.94
2018-11-23T07:25:39.129Z,99537.65
2018-11-23T07:28:15.077Z,99555.09
2018-11-23T07:30:36.632Z,99557.05
2018-11-23T07:33:05.747Z,99548.25
2018-11-23T07:35:34.174Z,99485.95
2018-11-23T07:38:02.437Z,99547.47
2018-11-23T07:40:44.520Z,99549.46
2018-11-23T07:43:13.253Z,99545.14
2018-11-23T07:45:41.679Z,99557.08
2018-11-23T07:48:10.634Z,99509.34
2018-11-23T07:50:39.413Z,99550.03
2018-11-23T07:53:08.313Z,99503.83
2018-11-23T07:55:36.993Z,99506.71
2018-11-23T07:58:06.221Z,99470.73
2018-11-23T08:00:36.238Z,99557.33
2018-11-23T08:03:05.917Z,99523.70
2018-11-23T08:05:34.484Z,99545.69
2018-11-23T08:08:03.335Z,99459.96
2018-11-23T08:10:31.167Z,99561.64
2018-11-23T08:12:59.602Z,99578.41
2018-11-23T08:15:28.435Z,99559.80
2018-11-23T08:17:56.594Z,99553.28
2018-11-23T08:20:25.492Z,99552.52
2018-11-23T08:22:53.835Z,99551.48
2018-11-23T08:25:23.291Z,99552.09
2018-11-23T08:27:53.569Z,99550.36
2018-11-23T08:30:25.032Z,99559.92
2018-11-23T08:32:53.929Z,99557.37
2018-11-23T08:35:22.606Z,99562.66
2018-11-23T08:37:50.794Z,99568.94
2018-11-23T08:40:21.305Z,99544.28
2018-11-23T08:42:50.809Z,99436.95
2018-11-23T08:45:21.732Z,99565.05
2018-11-23T08:47:50.116Z,99564.58
2018-11-23T08:50:22.802Z,99511.68
2018-11-23T08:52:51.133Z,99540.98
2018-11-23T08:55:19.646Z,99569.46
2018-11-23T08:57:48.163Z,99585.89
2018-11-23T09:00:18.592Z,99484.57
2018-11-23T09:02:48.274Z,99530.23
2018-11-23T09:05:16.824Z,99568.83
2018-11-23T09:07:46.200Z,99542.56
2018-11-23T09:10:17.116Z,99566.91
2018-11-23T09:12:47.398Z,99566.50
2018-11-23T09:15:15.779Z,99561.03
2018-11-23T09:17:44.494Z,99555.56
2018-11-23T09:20:13.989Z,99545.63
2018-11-23T09:22:42.569Z,99554.73
2018-11-23T09:25:13.358Z,99532.33
2018-11-23T09:27:41.813Z,99484.62
2018-11-23T09:30:16.621Z,99532.56
2018-11-23T09:32:45.754Z,99528.00
2018-11-23T09:35:14.274Z,99474.63
2018-11-23T09:37:43.055Z,99618.48
2018-11-23T09:40:14.548Z,99545.59
2018-11-23T09:42:42.816Z,99548.50
2018-11-23T09:45:14.243Z,99550.20
2018-11-23T09:47:43.889Z,99567.59
2018-11-23T09:50:14.630Z,99562.34
2018-11-23T09:52:43.209Z,99557.02
2018-11-23T09:55:11.676Z,99560.00
2018-11-23T09:57:40.083Z,99556.66
2018-11-23T10:00:10.552Z,99508.92
2018-11-23T10:02:39.286Z,99587.96
2018-11-23T10:05:08.542Z,99497.81
2018-11-23T10:07:37.003Z,99560.44
2018-11-23T10:10:06.573Z,99558.81
2018-11-23T10:12:34.782Z,99542.63
2018-11-23T10:15:03.002Z,99555.62
2018-11-23T10:17:31.601Z,99554.85
2018-11-23T10:20:00.637Z,99542.09
2018-11-23T10:22:29.242Z,99530.63
2018-11-23T10:24:58.070Z,99545.33
2018-11-23T10:27:26.763Z,99543.89
2018-11-23T10:29:55.315Z,99536.55
2018-11-23T10:32:24.153Z,99532.64
2018-11-23T10:34:52.479Z,99531.52
2018-11-23T10:37:20.993Z,99452.66
2018-11-23T10:39:49.672Z,99523.17
2018-11-23T10:42:18.310Z,99515.33
2018-11-23T10:44:46.769Z,99512.98
2018-11-23T10:47:15.366Z,99497.22
2018-11-23T10:49:43.840Z,99420.02
2018-11-23T10:52:12.731Z,99509.06
2018-11-23T10:54:41.818Z,99519.77
2018-11-23T10:57:10.184Z,99516.53
2018-11-23T10:59:39.793Z,99495.09
2018-11-23T11:02:13.412Z,99302.86
2018-11-23T11:04:47.202Z,99451.30
2018-11-23T11:07:15.400Z,99512.72
2018-11-23T11:09:43.887Z,99513.60
2018-11-23T11:12:12.349Z,99503.74
2018-11-23T11:14:40.929Z,99508.17
2018-11-23T11:17:09.595Z,99492.19
2018-11-23T11:19:37.827Z,99530.88
2018-11-23T11:22:06.352Z,99459.26
2018-11-23T11:24:34.996Z,99476.39
2018-11-23T11:27:03.837Z,99452.80
2018-11-23T11:29:31.958Z,99474.95
2018-11-23T11:32:00.352Z,99488.19
2018-11-23T11:34:28.976Z,99468.84
2018-11-23T11:36:57.308Z,99489.44
2018-11-23T11:39:26.804Z,99475.19
2018-11-23T11:41:55.234Z,99477.34
2018-11-23T11:44:23.849Z,99466.34
2018-11-23T11:46:52.174Z,99442.02
2018-11-23T11:49:21.496Z,99366.95
2018-11-23T11:51:50.526Z,99422.34
2018-11-23T11:54:19.486Z,99456.72
2018-11-23T11:56:47.660Z,99458.73
2018-11-23T11:59:15.991Z,99432.03
2018-11-23T12:01:44.970Z,99448.61
2018-11-23T12:04:13.212Z,99405.32
2018-11-23T12:06:41.357Z,99417.51
2018-11-23T12:09:11.317Z,99433.43
2018-11-23T12:11:39.839Z,99356.44
2018-11-23T12:14:08.066Z,99428.33
2018-11-23T12:16:36.201Z,99423.66
2018-11-23T12:19:04.394Z,99420.76
2018-11-23T12:21:33.105Z,99414.55
2018-11-23T12:24:02.055Z,99384.33
2018-11-23T12:26:30.541Z,99404.88
2018-11-23T12:28:58.691Z,99419.20
2018-11-23T12:31:26.896Z,99429.46
2018-11-23T12:33:55.159Z,99390.20
2018-11-23T12:36:23.267Z,99422.31
2018-11-23T12:38:51.857Z,99426.14
2018-11-23T12:41:20.422Z,99403.70
2018-11-23T12:43:48.744Z,99398.28
2018-11-23T12:46:16.893Z,99419.53
2018-11-23T12:48:45.843Z,99414.71
2018-11-23T12:51:13.971Z,99409.34
2018-11-23T12:53:42.790Z,99411.92
2018-11-23T12:56:11.240Z,99379.97
2018-11-23T12:58:39.673Z,99407.93
2018-11-23T13:01:08.037Z,99407.57
2018-11-23T13:03:36.155Z,99398.63
2018-11-23T13:06:06.865Z,99396.54
2018-11-23T13:08:36.540Z,99396.73
2018-11-23T13:11:04.794Z,99373.30
2018-11-23T13:13:33.356Z,99347.92
2018-11-23T13:16:02.032Z,99384.09
2018-11-23T13:18:30.274Z,99355.73
2018-11-23T13:20:58.879Z,99393.02
2018-11-23T13:23:31.736Z,99372.15
2018-11-23T13:26:02.079Z,99388.19
2018-11-23T13:28:31.009Z,99356.08
2018-11-23T13:30:59.157Z,99398.24
2018-11-23T13:36:12.038Z,99391.99
2018-11-23T13:38:40.223Z,99385.08
2018-11-23T13:41:10.649Z,99331.40
2018-11-23T13:43:43.041Z,99377.29
2018-11-23T13:46:12.052Z,99328.36
2018-11-23T13:48:41.456Z,99369.14
2018-11-23T13:51:12.312Z,99121.15
2018-11-23T13:53:40.492Z,99373.23
2018-11-23T13:56:10.728Z,99366.72
2018-11-23T13:58:39.632Z,99365.14
2018-11-23T14:01:10.039Z,99375.13
2018-11-23T14:03:42.282Z,99190.72
2018-11-23T14:06:17.625Z,99347.14
2018-11-23T14:08:47.984Z,99335.58
2018-11-23T14:11:20.115Z,99374.21
2018-11-23T14:13:53.379Z,99165.42
2018-11-23T14:16:23.854Z,99370.61
2018-11-23T14:18:52.345Z,99356.93
2018-11-23T14:21:21.228Z,99374.83
2018-11-23T14:23:49.806Z,99178.80
2018-11-23T14:26:19.180Z,99374.44
2018-11-23T14:28:51.118Z,99370.64
2018-11-23T14:31:20.480Z,99363.73
2018-11-23T14:33:49.793Z,99364.72
2018-11-23T14:36:20.283Z,99367.20
2018-11-23T14:38:48.578Z,99366.65
2018-11-23T14:41:17.772Z,99340.73
2018-11-23T14:43:49.958Z,99362.16
2018-11-23T14:46:21.631Z,99358.50
2018-11-23T14:48:50.243Z,99358.83
2018-11-23T14:51:20.510Z,99356.70
2018-11-23T14:53:48.756Z,99359.55
2018-11-23T14:56:19.742Z,99364.16
2018-11-23T14:58:52.048Z,99360.75
2018-11-23T15:01:20.793Z,99362.72
2018-11-23T15:03:50.442Z,99372.47
2018-11-23T15:06:22.084Z,99227.94
2018-11-23T15:08:50.640Z,99362.95
2018-11-23T15:11:19.947Z,99362.16
2018-11-23T15:13:53.484Z,99359.41
2018-11-23T15:16:22.452Z,99356.86
2018-11-23T15:18:50.825Z,99355.75
2018-11-23T15:21:19.576Z,99364.98
2018-11-23T15:23:50.167Z,99088.41
2018-11-23T15:26:20.120Z,99356.44
2018-11-23T15:28:49.653Z,99357.81
2018-11-23T15:31:18.011Z,99334.47
2018-11-23T15:33:48.138Z,99344.30
2018-11-23T15:36:16.835Z,99344.75
2018-11-23T15:38:46.397Z,99346.13
2018-11-23T15:41:15.013Z,99344.36
2018-11-23T15:43:44.878Z,99284.63
2018-11-23T15:46:13.316Z,99334.77
2018-11-23T15:48:42.334Z,99333.92
2018-11-23T15:51:11.640Z,99338.56
2018-11-23T15:53:41.245Z,99330.41
2018-11-23T15:56:10.716Z,99332.05
2018-11-23T15:58:39.621Z,99330.31
2018-11-23T16:01:11.326Z,99332.23
2018-11-23T16:03:41.083Z,99325.80
2018-11-23T16:06:14.996Z,99327.98
2018-11-23T16:08:45.702Z,99332.23
2018-11-23T16:11:15.197Z,99323.73
2018-11-23T16:13:47.331Z,99319.98
2018-11-23T16:16:20.374Z,99315.72
2018-11-23T16:18:50.135Z,99315.72
2018-11-23T16:21:18.428Z,99318.77
2018-11-23T16:23:47.942Z,99320.27
2018-11-23T16:26:17.819Z,99317.33
2018-11-23T16:28:46.047Z,99324.53
2018-11-23T16:31:14.512Z,99327.64
2018-11-23T16:33:44.221Z,99335.78
2018-11-23T16:36:13.480Z,99325.58
2018-11-23T16:38:42.982Z,99322.86
2018-11-23T16:41:11.603Z,99324.79
2018-11-23T16:43:40.793Z,99323.94
2018-11-23T16:46:09.552Z,99312.19
2018-11-23T16:48:38.251Z,99309.67
2018-11-23T16:51:07.106Z,99308.52
2018-11-23T16:53:35.292Z,99316.61
2018-11-23T16:56:04.075Z,99231.84
2018-11-23T16:58:33.399Z,99310.36
2018-11-23T17:01:03.455Z,99293.80
2018-11-23T17:03:34.456Z,99293.17
2018-11-23T17:06:03.033Z,99290.27
2018-11-23T17:08:31.629Z,99232.27
2018-11-23T17:11:00.577Z,99268.84
2018-11-23T17:13:30.948Z,99281.30
2018-11-23T17:16:02.424Z,99285.68
2018-11-23T17:18:33.004Z,99292.00
2018-11-23T17:21:04.226Z,99283.59
2018-11-23T17:23:35.406Z,99292.42
2018-11-23T17:26:04.853Z,99291.87
2018-11-23T17:28:33.348Z,99288.77
2018-11-23T17:31:01.519Z,99284.44
2018-11-23T17:33:30.088Z,99275.77
2018-11-23T17:35:58.303Z,99278.94
2018-11-23T17:38:26.615Z,99227.79
2018-11-23T17:40:55.598Z,99275.86
2018-11-23T17:43:23.783Z,99281.84
2018-11-23T17:45:51.951Z,99273.53
2018-11-23T17:48:20.261Z,99244.98
2018-11-23T17:50:48.409Z,99263.88
2018-11-23T17:53:16.599Z,99262.86
2018-11-23T17:55:45.231Z,99263.67
2018-11-23T17:58:13.483Z,99258.38
2018-11-23T18:00:41.660Z,99256.41
2018-11-23T18:03:09.914Z,99209.30
2018-11-23T18:05:38.090Z,99251.80
2018-11-23T18:08:06.339Z,99258.35
2018-11-23T18:10:35.644Z,99254.27
2018-11-23T18:13:04.513Z,99259.05
2018-11-23T18:15:34.222Z,99260.45
2018-11-23T18:18:04.017Z,99259.91
2018-11-23T18:20:33.599Z,99253.84
2018-11-23T18:23:02.639Z,99178.16
2018-11-23T18:25:32.396Z,99239.19
2018-11-23T18:28:02.620Z,99222.03
2018-11-23T18:30:32.964Z,99242.59
2018-11-23T18:33:03.072Z,99231.20
2018-11-23T18:35:32.032Z,99227.48
2018-11-23T18:38:00.570Z,99212.05
2018-11-23T18:40:32.269Z,99222.05
2018-11-23T18:42:57.356Z,99221.00
2018-11-23T18:45:25.888Z,99221.33
2018-11-23T18:47:54.536Z,99213.17
2018-11-23T18:50:24.085Z,99206.59
2018-11-23T18:52:52.464Z,99204.55
2018-11-23T18:55:20.654Z,99205.23
2018-11-23T18:57:48.932Z,99203.19
2018-11-23T19:00:18.316Z,99209.77
2018-11-23T19:02:47.351Z,99208.15
2018-11-23T19:05:21.888Z,99206.90
2018-11-23T19:07:50.056Z,99203.36
2018-11-23T19:10:18.509Z,99157.38
2018-11-23T19:12:46.987Z,99191.86
2018-11-23T19:15:17.504Z,99189.66
2018-11-23T19:17:45.356Z,99198.06
2018-11-23T19:20:17.755Z,99191.78
2018-11-23T19:22:47.118Z,99188.28
2018-11-23T19:25:15.875Z,99192.44
2018-11-23T19:27:44.088Z,99188.55
2018-11-23T19:30:13.975Z,99188.98
2018-11-23T19:32:42.316Z,99120.53
2018-11-23T19:35:10.512Z,99181.12
2018-11-23T19:37:38.857Z,99169.73
2018-11-23T19:40:12.196Z,99165.84
2018-11-23T19:42:40.377Z,99121.64
2018-11-23T19:45:14.257Z,99159.59
2018-11-23T19:47:43.006Z,99150.17
2018-11-23T19:50:12.925Z,99153.36
2018-11-23T19:52:41.824Z,99150.22
2018-11-23T19:55:10.993Z,99146.87
2018-11-23T19:57:39.135Z,99134.50
2018-11-23T20:00:15.931Z,99133.67
2018-11-23T20:02:44.316Z,99130.33
2018-11-23T20:05:13.708Z,99124.67
2018-11-23T20:07:42.023Z,99126.64
2018-11-23T20:10:15.792Z,99125.62
2018-11-23T20:12:45.159Z,99129.27
2018-11-23T20:15:16.553Z,99117.45
2018-11-23T20:17:44.912Z,99028.75
2018-11-23T20:20:15.257Z,99115.01
2018-11-23T20:22:44.114Z,99110.49
2018-11-23T20:25:13.543Z,99109.70
2018-11-23T20:27:42.779Z,99099.84
2018-11-23T20:30:13.895Z,99071.42
2018-11-23T20:32:42.064Z,99082.36
2018-11-23T20:35:11.830Z,99076.78
2018-11-23T20:37:40.588Z,99092.30
2018-11-23T20:40:13.737Z,99101.69
2018-11-23T20:42:42.672Z,99098.16
2018-11-23T20:45:11.551Z,99098.89
2018-11-23T20:47:40.100Z,99099.60
2018-11-23T20:50:13.798Z,99106.28
2018-11-23T20:52:42.384Z,99108.25
2018-11-23T20:55:16.292Z,99112.56
2018-11-23T20:57:46.513Z,99115.31
2018-11-23T21:00:15.820Z,99109.77
2018-11-23T21:02:44.892Z,99086.20
2018-11-23T21:05:15.178Z,99096.48
2018-11-23T21:07:43.748Z,99100.61
2018-11-23T21:10:20.084Z,99091.38
2018-11-23T21:12:45.564Z,99073.40
2018-11-23T21:15:19.136Z,99119.91
2018-11-23T21:17:50.602Z,99093.94
2018-11-23T21:20:19.529Z,99092.17
2018-11-23T21:22:48.152Z,99089.80
2018-11-23T21:25:16.747Z,99080.95
2018-11-23T21:27:46.836Z,99082.97
2018-11-23T21:30:19.215Z,99131.19
2018-11-23T21:32:47.621Z,99079.37
2018-11-23T21:35:16.822Z,99080.58
2018-11-23T21:37:47.407Z,99075.55
2018-11-23T21:40:20.504Z,99062.63
2018-11-23T21:42:49.383Z,99051.67
2018-11-23T21:45:20.254Z,99053.68
2018-11-23T21:47:48.564Z,99058.33
2018-11-23T21:50:24.566Z,99029.59
2018-11-23T21:52:46.775Z,99040.49
2018-11-23T21:55:16.520Z,99032.20
2018-11-23T21:57:45.261Z,99032.00
2018-11-23T22:00:16.408Z,99028.42
2018-11-23T22:02:45.744Z,99021.31
2018-11-23T22:05:14.698Z,99022.69
2018-11-23T22:07:43.326Z,98973.58
2018-11-23T22:10:16.183Z,99024.30
2018-11-23T22:12:45.008Z,99018.02
2018-11-23T22:15:17.386Z,99032.55
2018-11-23T22:17:46.223Z,98994.53
2018-11-23T22:20:15.868Z,99013.43
2018-11-23T22:22:44.036Z,99010.84
2018-11-23T22:25:13.293Z,99011.19
2018-11-23T22:27:42.018Z,99002.11
2018-11-23T22:30:16.048Z,98997.63
2018-11-23T22:32:44.977Z,99000.73
2018-11-23T22:35:14.233Z,99002.06
2018-11-23T22:37:42.730Z,98995.19
2018-11-23T22:40:16.214Z,98995.37
2018-11-23T22:42:46.374Z,98991.80
2018-11-23T22:45:17.733Z,98985.48
2018-11-23T22:47:46.265Z,98915.93
2018-11-23T22:50:17.124Z,98990.63
2018-11-23T22:52:45.552Z,98990.31
2018-11-23T22:55:14.448Z,98997.13
2018-11-23T22:57:43.534Z,98979.10
2018-11-23T23:00:24.349Z,98935.02
2018-11-23T23:02:53.144Z,98955.73
2018-11-23T23:05:23.531Z,98968.89
2018-11-23T23:07:51.807Z,98963.73
2018-11-23T23:10:20.628Z,98965.35
2018-11-23T23:12:48.935Z,98963.04
2018-11-23T23:15:17.704Z,98959.51
2018-11-23T23:17:46.879Z,98928.13
2018-11-23T23:20:18.456Z,98949.50
2018-11-23T23:22:47.143Z,98945.12
2018-11-23T23:25:16.193Z,98947.64
2018-11-23T23:27:44.887Z,98939.97
2018-11-23T23:30:14.224Z,98941.50
2018-11-23T23:32:43.027Z,98943.47
2018-11-23T23:35:13.244Z,98915.47
2018-11-23T23:37:41.548Z,98937.75
2018-11-23T23:40:12.043Z,98932.02
2018-11-23T23:42:40.203Z,98930.59
2018-11-23T23:45:10.684Z,98922.34
2018-11-23T23:47:39.420Z,98927.80
2018-11-23T23:50:10.215Z,98899.09
2018-11-23T23:52:38.541Z,98918.08
2018-11-23T23:55:08.206Z,98917.53
2018-11-23T23:57:36.736Z,98921.47
